createdAt,value
2023-02-06T00:01:01.278Z,100303.06
2023-02-06T00:03:34.899Z,100304.30
2023-02-06T00:06:09.520Z,100297.66
2023-02-06T00:08:42.900Z,100298.86
2023-02-06T00:11:18.195Z,100302.95
2023-02-06T00:13:52.211Z,100296.30
2023-02-06T00:16:27.781Z,100296.30
2023-02-06T00:19:02.463Z,100300.63
2023-02-06T00:21:36.305Z,100287.50
2023-02-06T00:24:10.371Z,100298.39
2023-02-06T00:26:43.751Z,100300.18
2023-02-06T00:29:17.190Z,100308.37
2023-02-06T00:31:52.170Z,100308.92
2023-02-06T00:34:25.984Z,100309.69
2023-02-06T00:37:01.243Z,100311.00
2023-02-06T00:39:35.549Z,100306.14
2023-02-06T00:42:09.314Z,100307.56
2023-02-06T00:44:43.938Z,100312.56
2023-02-06T00:47:17.149Z,100310.01
2023-02-06T00:49:51.447Z,100316.33
2023-02-06T00:52:25.110Z,100323.23
2023-02-06T00:54:58.439Z,100321.92
2023-02-06T00:57:32.145Z,100317.68
2023-02-06T01:00:05.746Z,100318.81
2023-02-06T01:02:39.349Z,100312.79
2023-02-06T01:05:13.000Z,100318.56
2023-02-06T01:07:46.681Z,100322.58
2023-02-06T01:10:20.190Z,100325.90
2023-02-06T01:12:53.812Z,100325.24
2023-02-06T01:15:27.585Z,100320.12
2023-02-06T01:18:02.684Z,100318.56
2023-02-06T01:20:36.339Z,100323.02
2023-02-06T01:23:10.686Z,100324.11
2023-02-06T01:25:44.204Z,100320.37
2023-02-06T01:28:17.359Z,100328.80
2023-02-06T01:30:51.579Z,100316.02
2023-02-06T01:33:25.229Z,100321.61
2023-02-06T01:35:59.168Z,100324.06
2023-02-06T01:38:32.952Z,100314.38
2023-02-06T01:41:08.710Z,100320.00
2023-02-06T01:43:44.317Z,100327.16
2023-02-06T01:46:18.109Z,100326.36
2023-02-06T01:48:54.293Z,100327.02
2023-02-06T01:51:30.956Z,100321.90
2023-02-06T01:54:06.864Z,100333.38
2023-02-06T01:56:43.318Z,100323.95
2023-02-06T01:59:17.467Z,100324.94
2023-02-06T02:01:52.113Z,100323.03
2023-02-06T02:04:29.071Z,100325.36
2023-02-06T02:07:06.524Z,100324.59
2023-02-06T02:09:40.268Z,100320.56
2023-02-06T02:12:14.439Z,100326.40
2023-02-06T02:14:50.584Z,100326.84
2023-02-06T02:17:29.971Z,100319.94
2023-02-06T02:20:43.926Z,100326.84
2023-02-06T02:23:28.346Z,100333.64
2023-02-06T02:26:51.014Z,100333.27
2023-02-06T02:30:28.436Z,100336.47
2023-02-06T02:33:40.221Z,100346.07
2023-02-06T02:36:17.523Z,100349.90
2023-02-06T02:38:57.371Z,100360.73
2023-02-06T02:41:34.065Z,100361.84
2023-02-06T02:44:11.875Z,100358.82
2023-02-06T02:46:48.487Z,100362.13
2023-02-06T02:49:24.733Z,100366.32
2023-02-06T02:52:00.149Z,100365.56
2023-02-06T02:54:33.853Z,100368.75
2023-02-06T02:57:10.065Z,100361.84
2023-02-06T02:59:46.322Z,100353.94
2023-02-06T03:02:23.083Z,100351.50
2023-02-06T03:04:59.916Z,100351.09
2023-02-06T03:07:37.235Z,100356.61
2023-02-06T03:10:14.118Z,100361.95
2023-02-06T03:12:50.786Z,100352.36
2023-02-06T03:15:28.368Z,100352.36
2023-02-06T03:18:04.898Z,100364.88
2023-02-06T03:20:41.419Z,100364.13
2023-02-06T03:23:17.503Z,100359.28
2023-02-06T03:25:53.845Z,100356.22
2023-02-06T03:28:30.032Z,100358.14
2023-02-06T03:31:06.421Z,100362.13
2023-02-06T03:33:43.658Z,100363.89
2023-02-06T03:36:18.665Z,100359.06
2023-02-06T03:38:54.312Z,100366.19
2023-02-06T03:41:31.137Z,100354.70
2023-02-06T03:44:07.526Z,100348.31
2023-02-06T03:46:43.462Z,100355.33
2023-02-06T03:49:20.351Z,100347.02
2023-02-06T03:51:57.023Z,100347.77
2023-02-06T03:54:32.337Z,100340.87
2023-02-06T03:57:08.448Z,100343.30
2023-02-06T03:59:42.275Z,100346.36
2023-02-06T04:02:17.013Z,100330.62
2023-02-06T04:04:51.029Z,100336.11
2023-02-06T04:07:27.290Z,100331.88
2023-02-06T04:10:00.932Z,100334.97
2023-02-06T04:12:35.240Z,100333.59
2023-02-06T04:15:10.359Z,100338.31
2023-02-06T04:17:58.772Z,100340.75
2023-02-06T04:20:19.460Z,100345.09
2023-02-06T04:22:52.752Z,100351.34
2023-02-06T04:25:26.632Z,100341.89
2023-02-06T04:28:00.180Z,100354.66
2023-02-06T04:30:33.932Z,100353.11
2023-02-06T04:33:07.676Z,100351.05
2023-02-06T04:35:40.775Z,100347.47
2023-02-06T04:38:14.200Z,100357.98
2023-02-06T04:40:47.667Z,100357.98
2023-02-06T04:43:21.091Z,100352.98
2023-02-06T04:45:54.562Z,100352.58
2023-02-06T04:48:28.435Z,100350.30
2023-02-06T04:51:01.750Z,100362.15
2023-02-06T04:53:35.288Z,100353.48
2023-02-06T04:56:11.283Z,100352.84
2023-02-06T04:58:44.731Z,100365.61
2023-02-06T05:01:19.773Z,100352.58
2023-02-06T05:03:53.423Z,100364.47
2023-02-06T05:06:26.710Z,100364.47
2023-02-06T05:09:00.565Z,100361.56
2023-02-06T05:11:34.152Z,100366.14
2023-02-06T05:14:07.770Z,100369.71
2023-02-06T05:16:41.511Z,100366.94
2023-02-06T05:19:14.725Z,100365.31
2023-02-06T05:21:48.417Z,100366.08
2023-02-06T05:24:21.926Z,100366.45
2023-02-06T05:26:57.476Z,100366.08
2023-02-06T05:29:31.145Z,100364.69
2023-02-06T05:32:04.498Z,100364.16
2023-02-06T05:34:37.879Z,100358.82
2023-02-06T05:37:11.285Z,100359.58
2023-02-06T05:39:44.665Z,100359.58
2023-02-06T05:42:18.343Z,100364.55
2023-02-06T05:44:51.741Z,100357.27
2023-02-06T05:47:26.005Z,100358.30
2023-02-06T05:49:59.413Z,100374.61
2023-02-06T05:52:34.551Z,100369.66
2023-02-06T05:55:09.561Z,100368.12
2023-02-06T05:57:44.238Z,100377.56
2023-02-06T06:00:19.412Z,100373.34
2023-02-06T06:02:52.973Z,100376.02
2023-02-06T06:05:26.610Z,100376.53
2023-02-06T06:07:59.821Z,100381.27
2023-02-06T06:10:33.399Z,100373.45
2023-02-06T06:13:06.758Z,100378.67
2023-02-06T06:15:40.119Z,100386.61
2023-02-06T06:18:13.635Z,100368.23
2023-02-06T06:20:47.867Z,100387.38
2023-02-06T06:23:21.505Z,100386.37
2023-02-06T06:25:55.081Z,100397.34
2023-02-06T06:28:28.814Z,100396.94
2023-02-06T06:31:06.988Z,100390.95
2023-02-06T06:33:41.181Z,100403.96
2023-02-06T06:36:15.557Z,100403.20
2023-02-06T06:38:49.279Z,100408.55
2023-02-06T06:41:22.891Z,100406.00
2023-02-06T06:43:58.440Z,100410.46
2023-02-06T06:46:31.885Z,100415.56
2023-02-06T06:49:05.427Z,100417.00
2023-02-06T06:51:39.065Z,100414.05
2023-02-06T06:54:12.634Z,100417.75
2023-02-06T06:56:46.360Z,100411.37
2023-02-06T06:59:19.734Z,100408.53
2023-02-06T07:01:53.568Z,100407.76
2023-02-06T07:04:28.865Z,100402.75
2023-02-06T07:07:02.397Z,100397.00
2023-02-06T07:09:36.282Z,100394.20
2023-02-06T07:12:10.412Z,100397.00
2023-02-06T07:14:43.713Z,100387.02
2023-02-06T07:17:17.300Z,100390.37
2023-02-06T07:19:52.634Z,100388.72
2023-02-06T07:22:25.869Z,100398.93
2023-02-06T07:25:04.003Z,100394.70
2023-02-06T07:30:23.018Z,100399.79
2023-02-06T07:32:56.608Z,100401.48
2023-02-06T07:35:30.270Z,100401.37
2023-02-06T07:38:03.645Z,100406.36
2023-02-06T07:40:44.947Z,100399.22
2023-02-06T07:43:12.891Z,100395.73
2023-02-06T07:45:46.403Z,100391.77
2023-02-06T07:48:20.097Z,100390.22
2023-02-06T07:50:53.553Z,100387.66
2023-02-06T07:53:27.132Z,100395.47
2023-02-06T07:56:00.556Z,100400.17
2023-02-06T07:58:34.131Z,100396.83
2023-02-06T08:01:08.323Z,100398.73
2023-02-06T08:03:41.717Z,100397.36
2023-02-06T08:06:16.648Z,100400.17
2023-02-06T08:08:50.639Z,100402.63
2023-02-06T08:11:27.137Z,100404.45
2023-02-06T08:14:01.065Z,100405.73
2023-02-06T08:16:34.424Z,100408.02
2023-02-06T08:19:09.728Z,100401.39
2023-02-06T08:21:43.569Z,100396.69
2023-02-06T08:24:17.057Z,100415.05
2023-02-06T08:26:50.474Z,100412.65
2023-02-06T08:29:25.300Z,100406.27
2023-02-06T08:31:58.813Z,100408.02
2023-02-06T08:34:32.189Z,100399.87
2023-02-06T08:37:05.897Z,100398.59
2023-02-06T08:39:39.972Z,100399.06
2023-02-06T08:42:13.508Z,100396.91
2023-02-06T08:44:47.072Z,100400.50
2023-02-06T08:47:20.638Z,100394.25
2023-02-06T08:50:47.493Z,100397.04
2023-02-06T08:53:19.696Z,100401.63
2023-02-06T08:55:54.118Z,100399.87
2023-02-06T08:58:27.516Z,100405.63
2023-02-06T09:01:02.882Z,100415.83
2023-02-06T09:03:36.646Z,100414.04
2023-02-06T09:06:10.746Z,100412.12
2023-02-06T09:08:44.773Z,100408.41
2023-02-06T09:11:20.510Z,100415.03
2023-02-06T09:13:55.801Z,100417.73
2023-02-06T09:16:32.244Z,100413.12
2023-02-06T09:19:06.653Z,100401.91
2023-02-06T09:21:40.803Z,100407.02
2023-02-06T09:24:14.191Z,100401.91
2023-02-06T09:26:59.423Z,100404.58
2023-02-06T09:29:23.007Z,100397.31
2023-02-06T09:31:57.693Z,100397.55
2023-02-06T09:34:31.390Z,100401.63
2023-02-06T09:37:05.861Z,100411.61
2023-02-06T09:39:39.653Z,100405.10
2023-02-06T09:42:16.773Z,100409.30
2023-02-06T09:44:53.624Z,100409.56
2023-02-06T09:47:29.822Z,100413.00
2023-02-06T09:50:07.865Z,100407.66
2023-02-06T09:52:50.673Z,100410.09
2023-02-06T09:55:28.905Z,100398.20
2023-02-06T09:58:05.862Z,100405.22
2023-02-06T10:00:43.329Z,100409.56
2023-02-06T10:06:24.756Z,100411.58
2023-02-06T10:09:03.624Z,100410.09
2023-02-06T10:11:43.033Z,100412.48
2023-02-06T10:14:22.072Z,100409.17
2023-02-06T10:17:00.182Z,100418.38
2023-02-06T10:19:38.775Z,100413.27
2023-02-06T10:22:16.475Z,100413.91
2023-02-06T10:24:50.325Z,100413.64
2023-02-06T10:27:23.712Z,100422.21
2023-02-06T10:29:57.154Z,100420.78
2023-02-06T10:32:37.460Z,100418.88
2023-02-06T10:35:24.372Z,100419.03
2023-02-06T10:38:05.905Z,100421.06
2023-02-06T10:40:44.915Z,100426.05
2023-02-06T10:43:23.849Z,100421.30
2023-02-06T10:46:01.024Z,100413.41
2023-02-06T10:48:37.657Z,100414.80
2023-02-06T10:51:17.171Z,100406.20
2023-02-06T10:53:53.519Z,100409.05
2023-02-06T10:56:29.941Z,100415.68
2023-02-06T10:59:05.817Z,100407.39
2023-02-06T11:01:42.467Z,100404.59
2023-02-06T11:04:18.667Z,100407.03
2023-02-06T11:06:53.519Z,100405.51
2023-02-06T11:09:26.601Z,100403.44
2023-02-06T11:12:02.801Z,100403.20
2023-02-06T11:14:38.954Z,100401.69
2023-02-06T11:17:15.486Z,100409.46
2023-02-06T11:19:51.230Z,100403.44
2023-02-06T11:22:36.651Z,100409.46
2023-02-06T11:25:09.121Z,100407.67
2023-02-06T11:27:44.459Z,100412.13
2023-02-06T11:30:35.115Z,100409.94
2023-02-06T11:33:10.719Z,100403.95
2023-02-06T11:35:49.823Z,100407.03
2023-02-06T11:38:25.713Z,100408.42
2023-02-06T11:41:01.873Z,100408.02
2023-02-06T11:43:37.679Z,100410.72
2023-02-06T11:46:20.075Z,100405.61
2023-02-06T11:49:04.843Z,100410.95
2023-02-06T11:51:52.288Z,100413.11
2023-02-06T11:54:27.648Z,100407.33
2023-02-06T11:57:08.224Z,100408.59
2023-02-06T11:59:44.810Z,100420.10
2023-02-06T12:02:29.778Z,100415.52
2023-02-06T12:05:07.276Z,100407.47
2023-02-06T12:07:43.597Z,100407.74
2023-02-06T12:10:19.084Z,100406.69
2023-02-06T12:12:55.499Z,100394.27
2023-02-06T12:15:45.388Z,100396.15
2023-02-06T12:18:09.869Z,100391.27
2023-02-06T12:20:49.678Z,100395.31
2023-02-06T12:23:27.209Z,100390.04
2023-02-06T12:26:03.745Z,100383.09
2023-02-06T12:28:40.288Z,100381.18
2023-02-06T12:31:16.666Z,100381.99
2023-02-06T12:33:55.045Z,100384.13
2023-02-06T12:36:32.214Z,100378.52
2023-02-06T12:39:08.261Z,100379.06
2023-02-06T12:41:51.886Z,100378.30
2023-02-06T12:44:29.387Z,100373.00
2023-02-06T12:47:06.156Z,100378.64
2023-02-06T12:49:42.602Z,100382.11
2023-02-06T12:52:18.709Z,100391.53
2023-02-06T12:57:37.404Z,100379.93
2023-02-06T13:03:33.832Z,100391.00
2023-02-06T13:06:14.992Z,100379.33
2023-02-06T13:08:52.298Z,100391.25
2023-02-06T13:11:30.301Z,100396.35
2023-02-06T13:14:03.450Z,100391.50
2023-02-06T13:16:45.793Z,100395.73
2023-02-06T13:19:31.874Z,100397.31
2023-02-06T13:22:35.319Z,100407.38
2023-02-06T13:25:56.719Z,100406.11
2023-02-06T13:29:05.116Z,100403.31
2023-02-06T13:31:38.726Z,100413.02
2023-02-06T13:34:17.491Z,100413.28
2023-02-06T13:36:55.313Z,100416.84
2023-02-06T13:39:34.551Z,100413.28
2023-02-06T13:42:45.053Z,100404.59
2023-02-06T13:45:21.814Z,100407.55
2023-02-06T13:48:33.249Z,100404.20
2023-02-06T13:54:45.249Z,100410.33
2023-02-06T13:57:35.249Z,100420.67
2023-02-06T14:00:14.660Z,100421.06
2023-02-06T14:02:51.360Z,100425.13
2023-02-06T14:05:27.236Z,100426.69
2023-02-06T14:08:16.478Z,100434.06
2023-02-06T14:16:41.226Z,100440.08
2023-02-06T14:19:19.173Z,100430.50
2023-02-06T14:25:09.760Z,100433.06
2023-02-06T14:27:51.309Z,100437.40
2023-02-06T14:30:31.317Z,100441.71
2023-02-06T14:33:11.810Z,100441.48
2023-02-06T14:41:46.379Z,100425.66
2023-02-06T14:44:22.758Z,100431.15
2023-02-06T14:46:56.699Z,100439.44
2023-02-06T14:49:34.153Z,100437.01
2023-02-06T14:52:08.381Z,100437.01
2023-02-06T14:54:41.876Z,100443.15
2023-02-06T14:57:20.539Z,100442.36
2023-02-06T14:59:57.020Z,100440.20
2023-02-06T15:02:32.846Z,100440.45
2023-02-06T15:05:07.882Z,100441.23
2023-02-06T15:07:41.542Z,100445.19
2023-02-06T15:10:18.720Z,100450.02
2023-02-06T15:12:55.200Z,100452.84
2023-02-06T15:15:30.028Z,100455.00
2023-02-06T15:18:05.507Z,100447.63
2023-02-06T15:20:41.434Z,100437.41
2023-02-06T15:23:18.914Z,100446.98
2023-02-06T15:26:01.080Z,100440.20
2023-02-06T15:28:38.087Z,100450.41
2023-02-06T15:31:19.800Z,100456.27
2023-02-06T15:33:55.829Z,100456.27
2023-02-06T15:36:33.467Z,100452.83
2023-02-06T15:39:06.752Z,100462.63
2023-02-06T15:41:41.087Z,100454.33
2023-02-06T15:44:17.397Z,100451.13
2023-02-06T15:46:52.432Z,100456.11
2023-02-06T15:49:38.596Z,100454.47
2023-02-06T15:52:12.758Z,100454.72
2023-02-06T15:54:47.654Z,100464.04
2023-02-06T15:57:27.811Z,100465.16
2023-02-06T16:00:01.609Z,100468.75
2023-02-06T16:02:39.871Z,100466.96
2023-02-06T16:05:23.282Z,100468.63
2023-02-06T16:07:57.133Z,100467.23
2023-02-06T16:10:32.606Z,100462.14
2023-02-06T16:13:10.500Z,100455.77
2023-02-06T16:15:45.594Z,100453.34
2023-02-06T16:18:29.005Z,100457.53
2023-02-06T16:21:21.739Z,100458.04
2023-02-06T16:23:59.437Z,100461.22
2023-02-06T16:26:32.636Z,100457.39
2023-02-06T16:29:08.710Z,100470.02
2023-02-06T16:31:43.983Z,100462.88
2023-02-06T16:34:25.810Z,100463.87
2023-02-06T16:36:59.128Z,100458.94
2023-02-06T16:39:32.516Z,100462.36
2023-02-06T16:42:05.853Z,100462.12
2023-02-06T16:44:45.259Z,100467.47
2023-02-06T16:47:18.530Z,100474.36
2023-02-06T16:49:52.364Z,100464.92
2023-02-06T16:52:27.822Z,100480.00
2023-02-06T16:55:01.842Z,100474.38
2023-02-06T16:57:38.291Z,100464.42
2023-02-06T17:00:21.408Z,100455.77
2023-02-06T17:02:55.430Z,100464.69
2023-02-06T17:05:31.719Z,100466.61
2023-02-06T17:08:09.160Z,100473.12
2023-02-06T17:10:43.055Z,100481.78
2023-02-06T17:13:17.935Z,100487.63
2023-02-06T17:15:53.355Z,100478.47
2023-02-06T17:18:27.110Z,100486.00
2023-02-06T17:21:00.732Z,100494.53
2023-02-06T17:23:33.952Z,100499.52
2023-02-06T17:26:07.909Z,100491.98
2023-02-06T17:28:41.562Z,100494.66
2023-02-06T17:31:15.448Z,100502.19
2023-02-06T17:33:49.305Z,100508.20
2023-02-06T17:36:25.688Z,100519.29
2023-02-06T17:38:59.872Z,100510.12
2023-02-06T17:41:33.235Z,100519.54
2023-02-06T17:44:12.077Z,100525.56
2023-02-06T17:46:46.990Z,100527.98
2023-02-06T17:49:20.606Z,100537.91
2023-02-06T17:51:54.622Z,100542.00
2023-02-06T17:54:28.234Z,100536.74
2023-02-06T17:57:01.793Z,100547.61
2023-02-06T17:59:35.277Z,100545.81
2023-02-06T18:02:08.933Z,100549.37
2023-02-06T18:07:24.432Z,100542.03
2023-02-06T18:09:58.793Z,100542.64
2023-02-06T18:12:32.380Z,100542.52
2023-02-06T18:17:47.969Z,100536.67
2023-02-06T18:20:22.097Z,100546.86
2023-02-06T18:22:55.349Z,100550.95
2023-02-06T18:25:28.906Z,100552.23
2023-02-06T18:28:02.280Z,100544.71
2023-02-06T18:30:37.375Z,100561.66
2023-02-06T18:33:12.924Z,100562.16
2023-02-06T18:35:49.024Z,100569.56
2023-02-06T18:38:22.776Z,100577.98
2023-02-06T18:40:56.696Z,100574.67
2023-02-06T18:43:33.432Z,100582.98
2023-02-06T18:46:10.651Z,100585.45
2023-02-06T18:48:44.179Z,100575.73
2023-02-06T18:51:18.140Z,100581.75
2023-02-06T18:53:52.493Z,100588.00
2023-02-06T18:56:26.264Z,100589.73
2023-02-06T18:58:59.994Z,100597.64
2023-02-06T19:01:34.106Z,100603.73
2023-02-06T19:04:09.526Z,100601.66
2023-02-06T19:06:44.886Z,100610.56
2023-02-06T19:09:20.880Z,100602.66
2023-02-06T19:11:57.322Z,100607.34
2023-02-06T19:14:34.188Z,100602.40
2023-02-06T19:17:08.260Z,100606.33
2023-02-06T19:19:42.569Z,100607.84
2023-02-06T19:22:16.480Z,100612.05
2023-02-06T19:24:51.518Z,100610.26
2023-02-06T19:27:26.380Z,100610.26
2023-02-06T19:29:59.966Z,100606.95
2023-02-06T19:32:35.408Z,100607.21
2023-02-06T19:35:09.543Z,100604.70
2023-02-06T19:37:43.273Z,100613.66
2023-02-06T19:40:16.037Z,100609.59
2023-02-06T19:42:49.609Z,100607.30
2023-02-06T19:45:23.002Z,100611.39
2023-02-06T19:47:57.287Z,100616.08
2023-02-06T19:50:30.877Z,100617.59
2023-02-06T19:53:04.508Z,100623.31
2023-02-06T19:55:38.095Z,100622.18
2023-02-06T19:58:11.439Z,100626.49
2023-02-06T20:00:44.986Z,100628.71
2023-02-06T20:03:18.385Z,100631.13
2023-02-06T20:05:51.800Z,100632.02
2023-02-06T20:08:25.371Z,100637.88
2023-02-06T20:10:58.876Z,100634.69
2023-02-06T20:13:32.329Z,100641.47
2023-02-06T20:16:07.486Z,100644.77
2023-02-06T20:18:41.043Z,100647.32
2023-02-06T20:21:26.737Z,100657.52
2023-02-06T20:24:03.010Z,100662.88
2023-02-06T20:26:37.917Z,100660.83
2023-02-06T20:29:12.969Z,100661.75
2023-02-06T20:31:46.609Z,100657.39
2023-02-06T20:34:21.881Z,100652.42
2023-02-06T20:36:56.199Z,100642.84
2023-02-06T20:39:31.192Z,100652.50
2023-02-06T20:42:04.814Z,100659.77
2023-02-06T20:44:38.035Z,100647.63
2023-02-06T20:47:11.763Z,100657.97
2023-02-06T20:49:45.511Z,100654.66
2023-02-06T20:52:19.279Z,100658.98
2023-02-06T20:54:52.797Z,100662.44
2023-02-06T20:57:26.302Z,100663.19
2023-02-06T20:59:59.885Z,100658.98
2023-02-06T21:02:35.364Z,100658.52
2023-02-06T21:05:10.072Z,100655.17
2023-02-06T21:07:44.043Z,100658.77
2023-02-06T21:10:18.158Z,100661.81
2023-02-06T21:12:54.487Z,100659.02
2023-02-06T21:15:28.366Z,100659.02
2023-02-06T21:18:01.625Z,100661.20
2023-02-06T21:20:35.871Z,100664.17
2023-02-06T21:23:10.197Z,100671.73
2023-02-06T21:25:43.601Z,100664.86
2023-02-06T21:28:17.313Z,100673.27
2023-02-06T21:30:51.763Z,100670.42
2023-02-06T21:33:25.504Z,100678.86
2023-02-06T21:35:59.286Z,100675.39
2023-02-06T21:38:32.626Z,100678.69
2023-02-06T21:41:08.533Z,100686.51
2023-02-06T21:43:42.801Z,100684.97
2023-02-06T21:46:16.780Z,100684.97
2023-02-06T21:48:53.709Z,100688.27
2023-02-06T21:51:27.221Z,100690.07
2023-02-06T21:54:00.636Z,100695.04
2023-02-06T21:56:34.158Z,100692.09
2023-02-06T21:59:08.347Z,100703.05
2023-02-06T22:01:42.147Z,100694.65
2023-02-06T22:04:15.570Z,100696.71
2023-02-06T22:06:49.215Z,100701.81
2023-02-06T22:09:23.117Z,100702.30
2023-02-06T22:11:56.870Z,100706.34
2023-02-06T22:14:30.480Z,100712.95
2023-02-06T22:17:03.963Z,100710.41
2023-02-06T22:19:37.906Z,100710.08
2023-02-06T22:22:12.678Z,100716.06
2023-02-06T22:24:46.591Z,100717.73
2023-02-06T22:27:20.319Z,100722.21
2023-02-06T22:29:53.808Z,100717.11
2023-02-06T22:32:27.308Z,100714.83
2023-02-06T22:35:02.177Z,100719.66
2023-02-06T22:37:35.893Z,100725.78
2023-02-06T22:40:10.439Z,100719.50
2023-02-06T22:42:43.936Z,100722.53
2023-02-06T22:45:17.801Z,100719.72
2023-02-06T22:47:51.378Z,100728.06
2023-02-06T22:50:25.385Z,100721.03
2023-02-06T22:53:16.253Z,100724.34
2023-02-06T22:56:07.315Z,100730.19
2023-02-06T22:58:40.903Z,100727.98
2023-02-06T23:01:15.240Z,100730.54
2023-02-06T23:03:50.573Z,100733.09
2023-02-06T23:06:24.318Z,100736.33
2023-02-06T23:08:58.200Z,100738.75
2023-02-06T23:11:32.491Z,100738.13
2023-02-06T23:14:07.535Z,100737.77
2023-02-06T23:16:41.330Z,100729.86
2023-02-06T23:19:16.054Z,100734.18
2023-02-06T23:21:52.056Z,100737.77
2023-02-06T23:24:25.842Z,100732.11
2023-02-06T23:26:59.169Z,100732.34
2023-02-06T23:29:33.104Z,100736.73
2023-02-06T23:32:06.789Z,100743.08
2023-02-06T23:34:40.466Z,100747.42
2023-02-06T23:37:14.034Z,100754.72
2023-02-06T23:39:47.236Z,100760.57
2023-02-06T23:42:20.742Z,100758.94
2023-02-06T23:44:54.969Z,100756.78
2023-02-06T23:47:28.346Z,100752.60
2023-02-06T23:50:01.854Z,100757.45
2023-02-06T23:52:35.236Z,100753.80
2023-02-06T23:55:10.246Z,100752.30
2023-02-06T23:57:44.308Z,100749.05
